sensor_id;sensor_type;location;lat;lon;timestamp;P1;durP1;ratioP1;P2;durP2;ratioP2
5965;SDS011;3009;43.224;27.976;2022-09-23T00:02:08;4.50;;;3.90;;
5965;SDS011;3009;43.224;27.976;2022-09-23T00:04:36;3.67;;;3.47;;
5965;SDS011;3009;43.224;27.976;2022-09-23T00:07:06;3.73;;;3.53;;
5965;SDS011;3009;43.224;27.976;2022-09-23T00:09:34;5.90;;;4.10;;
5965;SDS011;3009;43.224;27.976;2022-09-23T00:12:03;7.57;;;3.90;;
5965;SDS011;3009;43.224;27.976;2022-09-23T00:14:35;3.50;;;3.40;;
5965;SDS011;3009;43.224;27.976;2022-09-23T00:17:04;6.63;;;3.80;;
5965;SDS011;3009;43.224;27.976;2022-09-23T00:19:33;3.90;;;3.70;;
5965;SDS011;3009;43.224;27.976;2022-09-23T00:22:01;3.93;;;3.73;;
5965;SDS011;3009;43.224;27.976;2022-09-23T00:24:31;9.73;;;3.90;;
5965;SDS011;3009;43.224;27.976;2022-09-23T00:27:00;3.80;;;3.60;;
5965;SDS011;3009;43.224;27.976;2022-09-23T00:29:28;4.10;;;3.77;;
5965;SDS011;3009;43.224;27.976;2022-09-23T00:31:57;3.80;;;3.60;;
5965;SDS011;3009;43.224;27.976;2022-09-23T00:34:25;4.10;;;3.80;;
5965;SDS011;3009;43.224;27.976;2022-09-23T00:36:53;3.83;;;3.57;;
5965;SDS011;3009;43.224;27.976;2022-09-23T00:39:22;3.80;;;3.50;;
5965;SDS011;3009;43.224;27.976;2022-09-23T00:41:52;5.67;;;3.77;;
5965;SDS011;3009;43.224;27.976;2022-09-23T00:47:11;3.83;;;3.63;;
5965;SDS011;3009;43.224;27.976;2022-09-23T00:49:45;4.07;;;3.50;;
5965;SDS011;3009;43.224;27.976;2022-09-23T00:52:17;4.00;;;3.80;;
5965;SDS011;3009;43.224;27.976;2022-09-23T00:54:50;4.10;;;3.80;;
5965;SDS011;3009;43.224;27.976;2022-09-23T00:57:23;4.00;;;3.70;;
5965;SDS011;3009;43.224;27.976;2022-09-23T00:59:52;4.53;;;3.83;;
5965;SDS011;3009;43.224;27.976;2022-09-23T01:02:21;3.50;;;3.30;;
5965;SDS011;3009;43.224;27.976;2022-09-23T01:04:50;3.60;;;3.40;;
5965;SDS011;3009;43.224;27.976;2022-09-23T01:07:18;3.93;;;3.63;;
5965;SDS011;3009;43.224;27.976;2022-09-23T01:09:47;4.00;;;3.70;;
5965;SDS011;3009;43.224;27.976;2022-09-23T01:12:19;4.00;;;3.60;;
5965;SDS011;3009;43.224;27.976;2022-09-23T01:15:02;4.33;;;3.87;;
5965;SDS011;3009;43.224;27.976;2022-09-23T01:17:38;4.00;;;3.60;;
5965;SDS011;3009;43.224;27.976;2022-09-23T01:20:24;3.83;;;3.63;;
5965;SDS011;3009;43.224;27.976;2022-09-23T01:26:27;3.50;;;3.30;;
5965;SDS011;3009;43.224;27.976;2022-09-23T01:29:20;3.53;;;3.33;;
5965;SDS011;3009;43.224;27.976;2022-09-23T01:32:10;4.50;;;4.00;;
5965;SDS011;3009;43.224;27.976;2022-09-23T01:34:47;4.50;;;4.10;;
5965;SDS011;3009;43.224;27.976;2022-09-23T01:37:23;6.00;;;4.13;;
5965;SDS011;3009;43.224;27.976;2022-09-23T01:40:02;4.00;;;3.70;;
5965;SDS011;3009;43.224;27.976;2022-09-23T01:42:34;3.63;;;3.43;;
5965;SDS011;3009;43.224;27.976;2022-09-23T01:45:07;4.13;;;3.83;;
5965;SDS011;3009;43.224;27.976;2022-09-23T01:47:43;4.20;;;3.90;;
5965;SDS011;3009;43.224;27.976;2022-09-23T01:50:18;3.87;;;3.67;;
5965;SDS011;3009;43.224;27.976;2022-09-23T01:53:11;3.77;;;3.50;;
5965;SDS011;3009;43.224;27.976;2022-09-23T01:55:46;3.80;;;3.50;;
5965;SDS011;3009;43.224;27.976;2022-09-23T01:58:18;4.37;;;4.00;;
5965;SDS011;3009;43.224;27.976;2022-09-23T02:00:52;3.93;;;3.37;;
5965;SDS011;3009;43.224;27.976;2022-09-23T02:03:27;7.13;;;3.57;;
5965;SDS011;3009;43.224;27.976;2022-09-23T02:06:00;7.63;;;4.33;;
5965;SDS011;3009;43.224;27.976;2022-09-23T02:08:34;3.70;;;3.50;;
5965;SDS011;3009;43.224;27.976;2022-09-23T02:11:08;4.60;;;3.60;;
5965;SDS011;3009;43.224;27.976;2022-09-23T02:13:42;4.10;;;3.67;;
5965;SDS011;3009;43.224;27.976;2022-09-23T02:16:19;4.07;;;3.70;;
5965;SDS011;3009;43.224;27.976;2022-09-23T02:18:54;4.13;;;3.83;;
5965;SDS011;3009;43.224;27.976;2022-09-23T02:21:27;3.97;;;3.67;;
5965;SDS011;3009;43.224;27.976;2022-09-23T02:24:06;4.13;;;3.83;;
5965;SDS011;3009;43.224;27.976;2022-09-23T02:26:39;3.80;;;3.57;;
5965;SDS011;3009;43.224;27.976;2022-09-23T02:29:17;7.70;;;3.50;;
5965;SDS011;3009;43.224;27.976;2022-09-23T02:31:51;3.73;;;3.53;;
5965;SDS011;3009;43.224;27.976;2022-09-23T02:34:29;4.10;;;3.67;;
5965;SDS011;3009;43.224;27.976;2022-09-23T02:37:09;3.80;;;3.60;;
5965;SDS011;3009;43.224;27.976;2022-09-23T02:39:48;3.40;;;3.20;;
5965;SDS011;3009;43.224;27.976;2022-09-23T02:42:27;3.73;;;3.53;;
5965;SDS011;3009;43.224;27.976;2022-09-23T02:45:04;5.03;;;3.53;;
5965;SDS011;3009;43.224;27.976;2022-09-23T02:47:33;3.70;;;3.47;;
5965;SDS011;3009;43.224;27.976;2022-09-23T02:50:07;3.50;;;3.30;;
5965;SDS011;3009;43.224;27.976;2022-09-23T02:52:36;3.30;;;3.10;;
5965;SDS011;3009;43.224;27.976;2022-09-23T02:55:04;2.97;;;2.87;;
5965;SDS011;3009;43.224;27.976;2022-09-23T02:57:36;3.57;;;3.37;;
5965;SDS011;3009;43.224;27.976;2022-09-23T03:00:06;5.20;;;3.27;;
5965;SDS011;3009;43.224;27.976;2022-09-23T03:05:33;3.50;;;3.20;;
5965;SDS011;3009;43.224;27.976;2022-09-23T03:08:06;3.17;;;3.00;;
5965;SDS011;3009;43.224;27.976;2022-09-23T03:10:49;3.20;;;3.10;;
5965;SDS011;3009;43.224;27.976;2022-09-23T03:13:27;3.23;;;2.97;;
5965;SDS011;3009;43.224;27.976;2022-09-23T03:16:02;3.23;;;3.13;;
5965;SDS011;3009;43.224;27.976;2022-09-23T03:18:38;3.70;;;3.40;;
5965;SDS011;3009;43.224;27.976;2022-09-23T03:21:12;3.80;;;3.50;;
5965;SDS011;3009;43.224;27.976;2022-09-23T03:23:44;4.77;;;3.50;;
5965;SDS011;3009;43.224;27.976;2022-09-23T03:26:16;3.53;;;3.33;;
5965;SDS011;3009;43.224;27.976;2022-09-23T03:28:48;4.10;;;3.80;;
5965;SDS011;3009;43.224;27.976;2022-09-23T03:31:17;3.50;;;3.30;;
5965;SDS011;3009;43.224;27.976;2022-09-23T03:33:46;3.33;;;3.23;;
5965;SDS011;3009;43.224;27.976;2022-09-23T03:36:21;5.00;;;3.50;;
5965;SDS011;3009;43.224;27.976;2022-09-23T03:39:13;3.40;;;3.10;;
5965;SDS011;3009;43.224;27.976;2022-09-23T03:41:48;3.67;;;3.47;;
5965;SDS011;3009;43.224;27.976;2022-09-23T03:44:19;3.20;;;3.10;;
5965;SDS011;3009;43.224;27.976;2022-09-23T03:46:48;4.70;;;3.40;;
5965;SDS011;3009;43.224;27.976;2022-09-23T03:49:18;3.43;;;3.23;;
5965;SDS011;3009;43.224;27.976;2022-09-23T03:51:54;5.50;;;3.30;;
5965;SDS011;3009;43.224;27.976;2022-09-23T03:54:22;5.63;;;3.37;;
5965;SDS011;3009;43.224;27.976;2022-09-23T03:56:51;3.47;;;3.20;;
5965;SDS011;3009;43.224;27.976;2022-09-23T03:59:20;3.57;;;3.27;;
5965;SDS011;3009;43.224;27.976;2022-09-23T04:01:48;3.27;;;3.07;;
5965;SDS011;3009;43.224;27.976;2022-09-23T04:04:16;3.17;;;3.00;;
5965;SDS011;3009;43.224;27.976;2022-09-23T04:06:46;3.50;;;3.20;;
5965;SDS011;3009;43.224;27.976;2022-09-23T04:09:16;3.23;;;3.03;;
5965;SDS011;3009;43.224;27.976;2022-09-23T04:11:44;3.80;;;3.60;;
5965;SDS011;3009;43.224;27.976;2022-09-23T04:14:14;3.87;;;3.60;;
5965;SDS011;3009;43.224;27.976;2022-09-23T04:16:43;3.47;;;3.27;;
5965;SDS011;3009;43.224;27.976;2022-09-23T04:19:12;3.67;;;3.37;;
5965;SDS011;3009;43.224;27.976;2022-09-23T04:21:41;5.47;;;3.90;;
5965;SDS011;3009;43.224;27.976;2022-09-23T04:24:11;3.53;;;3.33;;
5965;SDS011;3009;43.224;27.976;2022-09-23T04:26:41;3.63;;;3.17;;
5965;SDS011;3009;43.224;27.976;2022-09-23T04:29:09;3.50;;;3.30;;
5965;SDS011;3009;43.224;27.976;2022-09-23T04:31:37;4.30;;;4.00;;
5965;SDS011;3009;43.224;27.976;2022-09-23T04:34:06;4.30;;;3.90;;
5965;SDS011;3009;43.224;27.976;2022-09-23T04:36:34;6.23;;;4.17;;
5965;SDS011;3009;43.224;27.976;2022-09-23T04:39:02;4.67;;;4.30;;
5965;SDS011;3009;43.224;27.976;2022-09-23T04:41:31;4.73;;;4.20;;
5965;SDS011;3009;43.224;27.976;2022-09-23T04:44:01;5.93;;;3.40;;
5965;SDS011;3009;43.224;27.976;2022-09-23T04:46:29;5.77;;;3.20;;
5965;SDS011;3009;43.224;27.976;2022-09-23T04:48:58;4.10;;;3.80;;
5965;SDS011;3009;43.224;27.976;2022-09-23T04:51:26;3.80;;;3.50;;
5965;SDS011;3009;43.224;27.976;2022-09-23T04:53:55;5.23;;;3.40;;
5965;SDS011;3009;43.224;27.976;2022-09-23T04:56:23;4.73;;;3.70;;
5965;SDS011;3009;43.224;27.976;2022-09-23T04:58:53;5.40;;;3.60;;
5965;SDS011;3009;43.224;27.976;2022-09-23T05:01:25;4.60;;;3.60;;
5965;SDS011;3009;43.224;27.976;2022-09-23T05:03:54;4.00;;;3.70;;
5965;SDS011;3009;43.224;27.976;2022-09-23T05:06:27;4.17;;;3.77;;
5965;SDS011;3009;43.224;27.976;2022-09-23T05:08:57;3.80;;;3.50;;
5965;SDS011;3009;43.224;27.976;2022-09-23T05:11:27;4.53;;;4.23;;
5965;SDS011;3009;43.224;27.976;2022-09-23T05:13:57;6.33;;;5.73;;
5965;SDS011;3009;43.224;27.976;2022-09-23T05:16:27;5.17;;;4.80;;
5965;SDS011;3009;43.224;27.976;2022-09-23T05:18:56;4.87;;;4.47;;
5965;SDS011;3009;43.224;27.976;2022-09-23T05:21:25;4.40;;;4.17;;
5965;SDS011;3009;43.224;27.976;2022-09-23T05:23:54;4.80;;;4.40;;
5965;SDS011;3009;43.224;27.976;2022-09-23T05:26:26;5.27;;;4.73;;
5965;SDS011;3009;43.224;27.976;2022-09-23T05:28:55;4.97;;;4.53;;
5965;SDS011;3009;43.224;27.976;2022-09-23T05:31:24;4.00;;;3.80;;
5965;SDS011;3009;43.224;27.976;2022-09-23T05:33:56;4.03;;;3.83;;
5965;SDS011;3009;43.224;27.976;2022-09-23T05:36:25;4.93;;;4.40;;
5965;SDS011;3009;43.224;27.976;2022-09-23T05:39:01;5.33;;;5.03;;
5965;SDS011;3009;43.224;27.976;2022-09-23T05:41:30;6.27;;;5.03;;
5965;SDS011;3009;43.224;27.976;2022-09-23T05:43:59;5.20;;;4.90;;
5965;SDS011;3009;43.224;27.976;2022-09-23T05:46:28;5.33;;;4.87;;
5965;SDS011;3009;43.224;27.976;2022-09-23T05:48:59;4.80;;;4.50;;
5965;SDS011;3009;43.224;27.976;2022-09-23T05:51:29;5.43;;;4.43;;
5965;SDS011;3009;43.224;27.976;2022-09-23T05:53:58;5.13;;;4.70;;
5965;SDS011;3009;43.224;27.976;2022-09-23T05:56:30;10.57;;;4.57;;
5965;SDS011;3009;43.224;27.976;2022-09-23T05:58:59;6.93;;;4.73;;
5965;SDS011;3009;43.224;27.976;2022-09-23T06:01:32;5.00;;;4.57;;
5965;SDS011;3009;43.224;27.976;2022-09-23T06:04:06;9.13;;;4.13;;
5965;SDS011;3009;43.224;27.976;2022-09-23T06:06:38;4.63;;;4.23;;
5965;SDS011;3009;43.224;27.976;2022-09-23T06:09:09;14.37;;;4.20;;
5965;SDS011;3009;43.224;27.976;2022-09-23T06:11:41;4.80;;;4.40;;
5965;SDS011;3009;43.224;27.976;2022-09-23T06:14:10;4.87;;;4.47;;
5965;SDS011;3009;43.224;27.976;2022-09-23T06:16:40;5.30;;;4.80;;
5965;SDS011;3009;43.224;27.976;2022-09-23T06:19:10;5.53;;;5.03;;
5965;SDS011;3009;43.224;27.976;2022-09-23T06:21:38;5.30;;;4.80;;
5965;SDS011;3009;43.224;27.976;2022-09-23T06:24:07;7.23;;;5.20;;
5965;SDS011;3009;43.224;27.976;2022-09-23T06:26:44;5.50;;;4.90;;
5965;SDS011;3009;43.224;27.976;2022-09-23T06:29:12;6.03;;;5.50;;
5965;SDS011;3009;43.224;27.976;2022-09-23T06:31:40;6.03;;;5.53;;
5965;SDS011;3009;43.224;27.976;2022-09-23T06:34:10;8.10;;;5.30;;
5965;SDS011;3009;43.224;27.976;2022-09-23T06:36:40;5.00;;;4.60;;
5965;SDS011;3009;43.224;27.976;2022-09-23T06:39:11;4.60;;;4.30;;
5965;SDS011;3009;43.224;27.976;2022-09-23T06:41:40;4.37;;;4.07;;
5965;SDS011;3009;43.224;27.976;2022-09-23T06:44:08;7.50;;;4.37;;
5965;SDS011;3009;43.224;27.976;2022-09-23T06:46:36;4.03;;;3.83;;
5965;SDS011;3009;43.224;27.976;2022-09-23T06:49:05;3.80;;;3.50;;
5965;SDS011;3009;43.224;27.976;2022-09-23T06:51:34;6.77;;;4.60;;
5965;SDS011;3009;43.224;27.976;2022-09-23T06:54:03;5.20;;;4.80;;
5965;SDS011;3009;43.224;27.976;2022-09-23T06:56:31;13.73;;;9.23;;
5965;SDS011;3009;43.224;27.976;2022-09-23T06:59:06;4.93;;;4.53;;
5965;SDS011;3009;43.224;27.976;2022-09-23T07:01:36;3.63;;;3.43;;
5965;SDS011;3009;43.224;27.976;2022-09-23T07:04:04;3.83;;;3.53;;
5965;SDS011;3009;43.224;27.976;2022-09-23T07:06:35;3.40;;;3.20;;
5965;SDS011;3009;43.224;27.976;2022-09-23T07:09:04;4.23;;;4.03;;
5965;SDS011;3009;43.224;27.976;2022-09-23T07:11:33;3.80;;;3.00;;
5965;SDS011;3009;43.224;27.976;2022-09-23T07:14:01;7.63;;;3.40;;
5965;SDS011;3009;43.224;27.976;2022-09-23T07:16:30;7.33;;;3.30;;
5965;SDS011;3009;43.224;27.976;2022-09-23T07:18:58;3.40;;;3.20;;
5965;SDS011;3009;43.224;27.976;2022-09-23T07:21:27;3.70;;;3.50;;
5965;SDS011;3009;43.224;27.976;2022-09-23T07:23:57;3.03;;;2.93;;
5965;SDS011;3009;43.224;27.976;2022-09-23T07:26:25;3.13;;;3.03;;
5965;SDS011;3009;43.224;27.976;2022-09-23T07:28:55;4.53;;;3.37;;
5965;SDS011;3009;43.224;27.976;2022-09-23T07:31:30;3.00;;;2.90;;
5965;SDS011;3009;43.224;27.976;2022-09-23T07:34:05;3.70;;;3.50;;
5965;SDS011;3009;43.224;27.976;2022-09-23T07:36:35;5.27;;;3.93;;
5965;SDS011;3009;43.224;27.976;2022-09-23T07:39:08;3.00;;;2.90;;
5965;SDS011;3009;43.224;27.976;2022-09-23T07:41:37;3.03;;;2.93;;
5965;SDS011;3009;43.224;27.976;2022-09-23T07:44:07;3.47;;;3.17;;
5965;SDS011;3009;43.224;27.976;2022-09-23T07:46:36;3.30;;;3.00;;
5965;SDS011;3009;43.224;27.976;2022-09-23T07:49:05;5.23;;;2.60;;
5965;SDS011;3009;43.224;27.976;2022-09-23T07:51:34;4.53;;;3.37;;
5965;SDS011;3009;43.224;27.976;2022-09-23T07:54:05;2.70;;;2.60;;
5965;SDS011;3009;43.224;27.976;2022-09-23T07:56:36;3.27;;;3.17;;
5965;SDS011;3009;43.224;27.976;2022-09-23T07:59:05;2.93;;;2.83;;
5965;SDS011;3009;43.224;27.976;2022-09-23T08:01:35;3.07;;;2.67;;
5965;SDS011;3009;43.224;27.976;2022-09-23T08:04:05;3.33;;;3.03;;
5965;SDS011;3009;43.224;27.976;2022-09-23T08:06:37;2.97;;;2.77;;
5965;SDS011;3009;43.224;27.976;2022-09-23T08:09:07;2.70;;;2.60;;
5965;SDS011;3009;43.224;27.976;2022-09-23T08:11:37;3.57;;;2.77;;
5965;SDS011;3009;43.224;27.976;2022-09-23T08:14:10;3.10;;;2.90;;
5965;SDS011;3009;43.224;27.976;2022-09-23T08:16:39;4.33;;;2.60;;
5965;SDS011;3009;43.224;27.976;2022-09-23T08:19:09;2.83;;;2.60;;
5965;SDS011;3009;43.224;27.976;2022-09-23T08:21:38;2.60;;;2.50;;
5965;SDS011;3009;43.224;27.976;2022-09-23T08:24:07;2.97;;;2.87;;
5965;SDS011;3009;43.224;27.976;2022-09-23T08:26:40;3.03;;;2.93;;
5965;SDS011;3009;43.224;27.976;2022-09-23T08:29:10;2.93;;;2.73;;
5965;SDS011;3009;43.224;27.976;2022-09-23T08:31:39;2.93;;;2.83;;
5965;SDS011;3009;43.224;27.976;2022-09-23T08:34:07;3.10;;;3.00;;
5965;SDS011;3009;43.224;27.976;2022-09-23T08:36:36;2.90;;;2.80;;
5965;SDS011;3009;43.224;27.976;2022-09-23T08:39:04;3.03;;;2.93;;
5965;SDS011;3009;43.224;27.976;2022-09-23T08:41:36;3.67;;;3.47;;
5965;SDS011;3009;43.224;27.976;2022-09-23T08:44:09;3.00;;;2.90;;
5965;SDS011;3009;43.224;27.976;2022-09-23T08:46:41;3.07;;;2.80;;
5965;SDS011;3009;43.224;27.976;2022-09-23T08:49:15;3.20;;;3.10;;
5965;SDS011;3009;43.224;27.976;2022-09-23T08:51:50;3.37;;;3.27;;
5965;SDS011;3009;43.224;27.976;2022-09-23T08:54:21;3.17;;;2.83;;
5965;SDS011;3009;43.224;27.976;2022-09-23T08:56:53;3.40;;;3.10;;
5965;SDS011;3009;43.224;27.976;2022-09-23T08:59:29;3.20;;;3.07;;
5965;SDS011;3009;43.224;27.976;2022-09-23T09:02:05;30.77;;;3.70;;
5965;SDS011;3009;43.224;27.976;2022-09-23T09:04:41;3.57;;;3.33;;
5965;SDS011;3009;43.224;27.976;2022-09-23T09:07:11;3.10;;;3.00;;
5965;SDS011;3009;43.224;27.976;2022-09-23T09:10:03;6.37;;;4.07;;
5965;SDS011;3009;43.224;27.976;2022-09-23T09:12:38;3.30;;;3.20;;
5965;SDS011;3009;43.224;27.976;2022-09-23T09:15:12;2.90;;;2.80;;
5965;SDS011;3009;43.224;27.976;2022-09-23T09:17:44;3.07;;;2.97;;
5965;SDS011;3009;43.224;27.976;2022-09-23T09:20:20;3.70;;;3.50;;
5965;SDS011;3009;43.224;27.976;2022-09-23T09:22:51;3.20;;;3.10;;
5965;SDS011;3009;43.224;27.976;2022-09-23T09:25:24;3.20;;;3.10;;
5965;SDS011;3009;43.224;27.976;2022-09-23T09:28:07;3.43;;;3.23;;
5965;SDS011;3009;43.224;27.976;2022-09-23T09:30:44;3.93;;;3.00;;
5965;SDS011;3009;43.224;27.976;2022-09-23T09:33:17;2.97;;;2.87;;
5965;SDS011;3009;43.224;27.976;2022-09-23T09:35:56;5.80;;;3.10;;
5965;SDS011;3009;43.224;27.976;2022-09-23T09:38:34;3.50;;;3.30;;
5965;SDS011;3009;43.224;27.976;2022-09-23T09:41:08;3.87;;;3.67;;
5965;SDS011;3009;43.224;27.976;2022-09-23T09:43:40;3.57;;;3.37;;
5965;SDS011;3009;43.224;27.976;2022-09-23T09:46:18;3.53;;;3.43;;
5965;SDS011;3009;43.224;27.976;2022-09-23T09:49:01;3.60;;;3.40;;
5965;SDS011;3009;43.224;27.976;2022-09-23T09:51:35;3.67;;;3.47;;
5965;SDS011;3009;43.224;27.976;2022-09-23T09:54:14;3.37;;;3.27;;
5965;SDS011;3009;43.224;27.976;2022-09-23T09:56:48;6.73;;;4.20;;
5965;SDS011;3009;43.224;27.976;2022-09-23T09:59:18;3.97;;;3.77;;
5965;SDS011;3009;43.224;27.976;2022-09-23T10:04:51;3.87;;;3.67;;
5965;SDS011;3009;43.224;27.976;2022-09-23T10:07:24;3.80;;;3.60;;
5965;SDS011;3009;43.224;27.976;2022-09-23T10:09:53;4.00;;;3.80;;
5965;SDS011;3009;43.224;27.976;2022-09-23T10:12:42;4.00;;;3.63;;
5965;SDS011;3009;43.224;27.976;2022-09-23T10:15:25;3.80;;;3.60;;
5965;SDS011;3009;43.224;27.976;2022-09-23T10:17:58;6.10;;;4.20;;
5965;SDS011;3009;43.224;27.976;2022-09-23T10:20:31;4.20;;;3.93;;
5965;SDS011;3009;43.224;27.976;2022-09-23T10:23:05;4.40;;;4.20;;
5965;SDS011;3009;43.224;27.976;2022-09-23T10:25:35;3.70;;;3.50;;
5965;SDS011;3009;43.224;27.976;2022-09-23T10:31:04;4.00;;;3.80;;
5965;SDS011;3009;43.224;27.976;2022-09-23T10:33:40;4.10;;;3.80;;
5965;SDS011;3009;43.224;27.976;2022-09-23T10:36:13;6.60;;;3.80;;
5965;SDS011;3009;43.224;27.976;2022-09-23T10:38:43;5.90;;;4.07;;
5965;SDS011;3009;43.224;27.976;2022-09-23T10:41:22;3.90;;;3.70;;
5965;SDS011;3009;43.224;27.976;2022-09-23T10:44:28;3.70;;;3.50;;
5965;SDS011;3009;43.224;27.976;2022-09-23T10:47:19;5.57;;;3.63;;
5965;SDS011;3009;43.224;27.976;2022-09-23T10:50:04;4.20;;;4.00;;
5965;SDS011;3009;43.224;27.976;2022-09-23T10:52:44;3.80;;;3.50;;
5965;SDS011;3009;43.224;27.976;2022-09-23T10:55:32;3.80;;;3.60;;
5965;SDS011;3009;43.224;27.976;2022-09-23T10:58:17;4.40;;;4.00;;
5965;SDS011;3009;43.224;27.976;2022-09-23T11:01:07;3.83;;;3.63;;
5965;SDS011;3009;43.224;27.976;2022-09-23T11:03:51;4.13;;;3.83;;
5965;SDS011;3009;43.224;27.976;2022-09-23T11:06:39;3.83;;;3.63;;
5965;SDS011;3009;43.224;27.976;2022-09-23T11:09:18;6.40;;;3.80;;
5965;SDS011;3009;43.224;27.976;2022-09-23T11:12:00;3.80;;;3.50;;
5965;SDS011;3009;43.224;27.976;2022-09-23T11:14:44;4.00;;;3.67;;
5965;SDS011;3009;43.224;27.976;2022-09-23T11:17:29;4.23;;;4.03;;
5965;SDS011;3009;43.224;27.976;2022-09-23T11:20:17;3.77;;;3.57;;
5965;SDS011;3009;43.224;27.976;2022-09-23T11:23:14;4.03;;;3.83;;
5965;SDS011;3009;43.224;27.976;2022-09-23T11:26:04;4.30;;;3.87;;
5965;SDS011;3009;43.224;27.976;2022-09-23T11:31:36;4.10;;;3.80;;
5965;SDS011;3009;43.224;27.976;2022-09-23T11:34:39;4.10;;;3.80;;
5965;SDS011;3009;43.224;27.976;2022-09-23T11:37:29;4.07;;;3.70;;
5965;SDS011;3009;43.224;27.976;2022-09-23T11:40:04;3.70;;;3.50;;
5965;SDS011;3009;43.224;27.976;2022-09-23T11:42:43;4.30;;;4.10;;
5965;SDS011;3009;43.224;27.976;2022-09-23T11:45:20;3.77;;;3.57;;
5965;SDS011;3009;43.224;27.976;2022-09-23T11:47:52;3.80;;;3.60;;
5965;SDS011;3009;43.224;27.976;2022-09-23T11:50:26;4.00;;;3.80;;
5965;SDS011;3009;43.224;27.976;2022-09-23T11:53:00;4.40;;;3.63;;
5965;SDS011;3009;43.224;27.976;2022-09-23T11:55:34;4.07;;;3.87;;
5965;SDS011;3009;43.224;27.976;2022-09-23T11:58:24;3.90;;;3.63;;
5965;SDS011;3009;43.224;27.976;2022-09-23T12:00:57;4.40;;;3.77;;
5965;SDS011;3009;43.224;27.976;2022-09-23T12:03:34;3.67;;;3.43;;
5965;SDS011;3009;43.224;27.976;2022-09-23T12:06:13;3.37;;;3.27;;
5965;SDS011;3009;43.224;27.976;2022-09-23T12:08:44;3.77;;;3.57;;
5965;SDS011;3009;43.224;27.976;2022-09-23T12:11:18;4.00;;;3.80;;
5965;SDS011;3009;43.224;27.976;2022-09-23T12:13:54;3.90;;;3.60;;
5965;SDS011;3009;43.224;27.976;2022-09-23T12:16:37;4.57;;;3.47;;
5965;SDS011;3009;43.224;27.976;2022-09-23T12:19:26;3.40;;;3.20;;
5965;SDS011;3009;43.224;27.976;2022-09-23T12:22:20;4.00;;;3.70;;
5965;SDS011;3009;43.224;27.976;2022-09-23T12:25:07;5.23;;;4.77;;
5965;SDS011;3009;43.224;27.976;2022-09-23T12:27:50;11.20;;;6.60;;
5965;SDS011;3009;43.224;27.976;2022-09-23T12:30:23;6.40;;;4.90;;
5965;SDS011;3009;43.224;27.976;2022-09-23T12:33:05;9.63;;;5.37;;
5965;SDS011;3009;43.224;27.976;2022-09-23T12:35:37;7.30;;;6.70;;
5965;SDS011;3009;43.224;27.976;2022-09-23T12:38:13;8.53;;;6.23;;
5965;SDS011;3009;43.224;27.976;2022-09-23T12:40:46;5.90;;;5.40;;
5965;SDS011;3009;43.224;27.976;2022-09-23T12:43:17;5.97;;;5.40;;
5965;SDS011;3009;43.224;27.976;2022-09-23T12:45:47;4.20;;;3.90;;
5965;SDS011;3009;43.224;27.976;2022-09-23T12:51:16;3.20;;;3.03;;
5965;SDS011;3009;43.224;27.976;2022-09-23T12:53:53;3.80;;;3.60;;
5965;SDS011;3009;43.224;27.976;2022-09-23T12:59:30;3.30;;;3.10;;
5965;SDS011;3009;43.224;27.976;2022-09-23T13:02:24;3.37;;;3.20;;
5965;SDS011;3009;43.224;27.976;2022-09-23T13:04:58;4.03;;;3.83;;
5965;SDS011;3009;43.224;27.976;2022-09-23T13:07:48;3.50;;;3.37;;
5965;SDS011;3009;43.224;27.976;2022-09-23T13:10:19;3.80;;;3.50;;
5965;SDS011;3009;43.224;27.976;2022-09-23T13:12:54;3.80;;;3.60;;
5965;SDS011;3009;43.224;27.976;2022-09-23T13:15:27;3.63;;;3.43;;
5965;SDS011;3009;43.224;27.976;2022-09-23T13:20:52;4.43;;;4.07;;
5965;SDS011;3009;43.224;27.976;2022-09-23T13:23:23;3.80;;;3.60;;
5965;SDS011;3009;43.224;27.976;2022-09-23T13:25:53;3.10;;;3.00;;
5965;SDS011;3009;43.224;27.976;2022-09-23T13:28:27;2.77;;;2.67;;
5965;SDS011;3009;43.224;27.976;2022-09-23T13:31:03;3.23;;;2.90;;
5965;SDS011;3009;43.224;27.976;2022-09-23T13:33:39;3.20;;;3.00;;
5965;SDS011;3009;43.224;27.976;2022-09-23T13:36:11;3.50;;;3.33;;
5965;SDS011;3009;43.224;27.976;2022-09-23T13:38:41;3.13;;;3.03;;
5965;SDS011;3009;43.224;27.976;2022-09-23T13:41:12;3.00;;;2.90;;
5965;SDS011;3009;43.224;27.976;2022-09-23T13:43:43;3.73;;;3.40;;
5965;SDS011;3009;43.224;27.976;2022-09-23T13:46:16;4.83;;;3.57;;
5965;SDS011;3009;43.224;27.976;2022-09-23T13:48:47;4.30;;;4.00;;
5965;SDS011;3009;43.224;27.976;2022-09-23T13:51:20;3.67;;;3.43;;
5965;SDS011;3009;43.224;27.976;2022-09-23T13:53:52;4.27;;;3.93;;
5965;SDS011;3009;43.224;27.976;2022-09-23T13:56:22;4.17;;;3.90;;
5965;SDS011;3009;43.224;27.976;2022-09-23T13:58:51;3.93;;;3.60;;
5965;SDS011;3009;43.224;27.976;2022-09-23T14:01:28;3.73;;;3.53;;
5965;SDS011;3009;43.224;27.976;2022-09-23T14:03:58;3.90;;;3.60;;
5965;SDS011;3009;43.224;27.976;2022-09-23T14:06:28;5.23;;;4.73;;
5965;SDS011;3009;43.224;27.976;2022-09-23T14:08:58;4.63;;;4.23;;
5965;SDS011;3009;43.224;27.976;2022-09-23T14:11:29;7.03;;;3.70;;
5965;SDS011;3009;43.224;27.976;2022-09-23T14:14:00;4.77;;;3.70;;
5965;SDS011;3009;43.224;27.976;2022-09-23T14:16:35;3.47;;;3.27;;
5965;SDS011;3009;43.224;27.976;2022-09-23T14:19:06;2.87;;;2.73;;
5965;SDS011;3009;43.224;27.976;2022-09-23T14:21:45;4.40;;;3.07;;
5965;SDS011;3009;43.224;27.976;2022-09-23T14:24:16;2.90;;;2.70;;
5965;SDS011;3009;43.224;27.976;2022-09-23T14:26:46;2.70;;;2.60;;
5965;SDS011;3009;43.224;27.976;2022-09-23T14:29:20;3.57;;;3.33;;
5965;SDS011;3009;43.224;27.976;2022-09-23T14:31:53;2.87;;;2.67;;
5965;SDS011;3009;43.224;27.976;2022-09-23T14:34:39;3.00;;;2.80;;
5965;SDS011;3009;43.224;27.976;2022-09-23T14:37:18;3.00;;;2.90;;
5965;SDS011;3009;43.224;27.976;2022-09-23T14:40:14;3.13;;;2.90;;
5965;SDS011;3009;43.224;27.976;2022-09-23T14:42:45;3.70;;;2.90;;
5965;SDS011;3009;43.224;27.976;2022-09-23T14:45:18;3.27;;;3.10;;
5965;SDS011;3009;43.224;27.976;2022-09-23T14:47:50;3.10;;;2.90;;
5965;SDS011;3009;43.224;27.976;2022-09-23T14:50:24;2.90;;;2.80;;
5965;SDS011;3009;43.224;27.976;2022-09-23T14:56:06;3.00;;;2.80;;
5965;SDS011;3009;43.224;27.976;2022-09-23T14:58:40;4.73;;;3.10;;
5965;SDS011;3009;43.224;27.976;2022-09-23T15:04:26;3.27;;;3.07;;
5965;SDS011;3009;43.224;27.976;2022-09-23T15:07:01;3.27;;;3.10;;
5965;SDS011;3009;43.224;27.976;2022-09-23T15:09:35;2.90;;;2.70;;
5965;SDS011;3009;43.224;27.976;2022-09-23T15:12:06;2.77;;;2.67;;
5965;SDS011;3009;43.224;27.976;2022-09-23T15:14:39;3.40;;;2.90;;
5965;SDS011;3009;43.224;27.976;2022-09-23T15:17:26;3.60;;;3.37;;
5965;SDS011;3009;43.224;27.976;2022-09-23T15:20:00;6.53;;;4.10;;
5965;SDS011;3009;43.224;27.976;2022-09-23T15:22:30;5.00;;;4.50;;
5965;SDS011;3009;43.224;27.976;2022-09-23T15:25:15;4.40;;;4.00;;
5965;SDS011;3009;43.224;27.976;2022-09-23T15:27:57;5.37;;;3.53;;
5965;SDS011;3009;43.224;27.976;2022-09-23T15:30:27;4.57;;;4.17;;
5965;SDS011;3009;43.224;27.976;2022-09-23T15:32:57;5.53;;;4.63;;
5965;SDS011;3009;43.224;27.976;2022-09-23T15:35:27;6.60;;;4.63;;
5965;SDS011;3009;43.224;27.976;2022-09-23T15:37:57;4.27;;;3.97;;
5965;SDS011;3009;43.224;27.976;2022-09-23T15:40:27;4.73;;;3.97;;
5965;SDS011;3009;43.224;27.976;2022-09-23T15:42:57;4.23;;;3.93;;
5965;SDS011;3009;43.224;27.976;2022-09-23T15:45:27;4.30;;;3.50;;
5965;SDS011;3009;43.224;27.976;2022-09-23T15:48:00;4.33;;;3.40;;
5965;SDS011;3009;43.224;27.976;2022-09-23T15:50:35;6.07;;;3.83;;
5965;SDS011;3009;43.224;27.976;2022-09-23T15:53:03;10.63;;;3.57;;
5965;SDS011;3009;43.224;27.976;2022-09-23T15:55:32;8.90;;;3.90;;
5965;SDS011;3009;43.224;27.976;2022-09-23T15:58:00;10.63;;;3.97;;
5965;SDS011;3009;43.224;27.976;2022-09-23T16:00:28;8.03;;;4.20;;
5965;SDS011;3009;43.224;27.976;2022-09-23T16:02:57;11.40;;;5.27;;
5965;SDS011;3009;43.224;27.976;2022-09-23T16:05:27;11.70;;;4.80;;
5965;SDS011;3009;43.224;27.976;2022-09-23T16:08:00;15.30;;;5.27;;
5965;SDS011;3009;43.224;27.976;2022-09-23T16:10:34;12.73;;;5.33;;
5965;SDS011;3009;43.224;27.976;2022-09-23T16:13:04;14.97;;;5.40;;